createdAt,value
2022-10-17T00:00:59.963Z,10.48
2022-10-17T00:03:27.279Z,10.47
2022-10-17T00:05:54.617Z,10.44
2022-10-17T00:08:21.937Z,10.41
2022-10-17T00:11:02.879Z,10.37
2022-10-17T00:13:30.621Z,10.31
2022-10-17T00:15:58.288Z,10.24
2022-10-17T00:18:26.579Z,10.20
2022-10-17T00:20:54.172Z,10.19
2022-10-17T00:23:21.361Z,10.15
2022-10-17T00:25:57.356Z,10.13
2022-10-17T00:28:24.512Z,10.07
2022-10-17T00:31:05.611Z,10.05
2022-10-17T00:33:35.194Z,10.02
2022-10-17T00:36:19.207Z,9.97
2022-10-17T00:38:50.487Z,9.95
2022-10-17T00:41:22.036Z,9.87
2022-10-17T00:44:27.033Z,9.85
2022-10-17T00:46:55.900Z,9.83
2022-10-17T00:49:27.619Z,9.81
2022-10-17T00:52:02.073Z,9.78
2022-10-17T00:54:38.372Z,9.74
2022-10-17T00:57:06.654Z,9.73
2022-10-17T00:59:37.822Z,9.77
2022-10-17T01:02:10.875Z,9.77
2022-10-17T01:04:45.070Z,9.77
2022-10-17T01:07:12.739Z,9.76
2022-10-17T01:09:41.775Z,9.73
2022-10-17T01:12:41.241Z,9.70
2022-10-17T01:15:44.144Z,9.67
2022-10-17T01:18:43.339Z,9.63
2022-10-17T01:22:00.272Z,9.57
2022-10-17T01:24:42.279Z,9.54
2022-10-17T01:27:34.148Z,9.49
2022-10-17T01:30:19.352Z,9.45
2022-10-17T01:33:01.266Z,9.39
2022-10-17T01:35:38.918Z,9.39
2022-10-17T01:38:25.442Z,9.35
2022-10-17T01:41:14.007Z,9.32
2022-10-17T01:43:51.502Z,9.29
2022-10-17T01:46:36.068Z,9.28
2022-10-17T01:49:08.423Z,9.24
2022-10-17T01:52:04.863Z,9.23
2022-10-17T01:54:42.517Z,9.22
2022-10-17T01:57:20.602Z,9.22
2022-10-17T01:59:52.653Z,9.21
2022-10-17T02:02:21.944Z,9.21
2022-10-17T02:04:52.613Z,9.18
2022-10-17T02:07:19.845Z,9.16
2022-10-17T02:09:47.062Z,9.15
2022-10-17T02:13:09.421Z,9.15
2022-10-17T02:16:13.167Z,9.10
2022-10-17T02:19:20.616Z,9.09
2022-10-17T02:22:08.813Z,9.09
2022-10-17T02:25:21.551Z,9.09
2022-10-17T02:28:00.757Z,9.07
2022-10-17T02:30:54.003Z,9.03
2022-10-17T02:33:53.842Z,8.95
2022-10-17T02:36:29.201Z,8.96
2022-10-17T02:38:59.034Z,8.95
2022-10-17T02:43:57.639Z,8.91
2022-10-17T02:46:29.355Z,8.86
2022-10-17T02:49:30.890Z,8.87
2022-10-17T02:52:34.599Z,8.83
2022-10-17T02:55:26.898Z,8.77
2022-10-17T02:58:06.746Z,8.75
2022-10-17T03:00:35.251Z,8.78
2022-10-17T03:03:19.338Z,8.75
2022-10-17T03:05:46.614Z,8.72
2022-10-17T03:08:13.883Z,8.68
2022-10-17T03:10:41.140Z,8.63
2022-10-17T03:13:08.417Z,8.63
2022-10-17T03:15:35.725Z,8.66
2022-10-17T03:18:03.524Z,8.65
2022-10-17T03:20:30.829Z,8.65
2022-10-17T03:22:58.054Z,8.63
2022-10-17T03:25:25.362Z,8.56
2022-10-17T03:27:53.148Z,8.56
2022-10-17T03:30:20.986Z,8.57
2022-10-17T03:32:48.329Z,8.56
2022-10-17T03:35:15.737Z,8.56
2022-10-17T03:37:42.982Z,8.55
2022-10-17T03:40:11.327Z,8.55
2022-10-17T03:42:38.889Z,8.51
2022-10-17T03:45:07.160Z,8.49
2022-10-17T03:47:34.757Z,8.44
2022-10-17T03:50:02.329Z,8.43
2022-10-17T03:52:29.988Z,8.40
2022-10-17T03:54:57.732Z,8.37
2022-10-17T03:57:25.414Z,8.36
2022-10-17T03:59:53.024Z,8.34
2022-10-17T04:02:20.626Z,8.32
2022-10-17T04:04:48.239Z,8.28
2022-10-17T04:07:15.840Z,8.28
2022-10-17T04:09:43.637Z,8.32
2022-10-17T04:12:11.212Z,8.31
2022-10-17T04:14:38.938Z,8.30
2022-10-17T04:17:06.176Z,8.27
2022-10-17T04:19:33.415Z,8.24
2022-10-17T04:22:00.599Z,8.23
2022-10-17T04:24:28.243Z,8.18
2022-10-17T04:26:55.540Z,8.18
2022-10-17T04:29:22.797Z,8.11
2022-10-17T04:31:50.043Z,8.11
2022-10-17T04:34:17.743Z,8.12
2022-10-17T04:36:44.895Z,8.07
2022-10-17T04:41:44.081Z,8.04
2022-10-17T04:44:12.186Z,8.05
2022-10-17T04:46:39.772Z,8.07
2022-10-17T04:49:07.236Z,8.07
2022-10-17T04:51:34.597Z,8.02
2022-10-17T04:54:01.884Z,8.03
2022-10-17T04:56:29.046Z,8.00
2022-10-17T04:58:56.373Z,7.99
2022-10-17T05:01:25.700Z,7.95
2022-10-17T05:03:54.249Z,7.94
2022-10-17T05:06:25.405Z,7.93
2022-10-17T05:08:52.548Z,7.89
2022-10-17T05:11:29.021Z,7.86
2022-10-17T05:14:01.995Z,7.87
2022-10-17T05:16:30.633Z,7.85
2022-10-17T05:18:59.290Z,7.87
2022-10-17T05:21:29.006Z,7.87
2022-10-17T05:23:56.782Z,7.84
2022-10-17T05:26:25.651Z,7.81
2022-10-17T05:28:53.404Z,7.84
2022-10-17T05:31:20.981Z,7.85
2022-10-17T05:33:48.282Z,7.86
2022-10-17T05:36:15.666Z,7.88
2022-10-17T05:38:42.853Z,7.87
2022-10-17T05:41:10.995Z,7.84
2022-10-17T05:43:38.388Z,7.83
2022-10-17T05:46:07.564Z,7.84
2022-10-17T05:48:35.388Z,7.81
2022-10-17T05:51:09.304Z,7.81
2022-10-17T05:53:42.344Z,7.77
2022-10-17T05:56:12.480Z,7.80
2022-10-17T05:58:54.114Z,7.83
2022-10-17T06:01:25.289Z,7.84
2022-10-17T06:03:52.567Z,7.86
2022-10-17T06:06:20.069Z,7.89
2022-10-17T06:08:47.458Z,7.89
2022-10-17T06:11:15.239Z,7.90
2022-10-17T06:13:42.745Z,7.88
2022-10-17T06:16:10.113Z,7.89
2022-10-17T06:18:37.268Z,7.87
2022-10-17T06:21:10.044Z,7.85
2022-10-17T06:23:38.076Z,7.83
2022-10-17T06:26:07.275Z,7.81
2022-10-17T06:28:36.145Z,7.81
2022-10-17T06:31:09.789Z,7.85
2022-10-17T06:33:37.824Z,7.86
2022-10-17T06:36:07.953Z,7.89
2022-10-17T06:38:35.946Z,7.97
2022-10-17T06:41:10.246Z,8.04
2022-10-17T06:43:38.269Z,8.12
2022-10-17T06:46:06.542Z,8.19
2022-10-17T06:48:34.075Z,8.27
2022-10-17T06:51:03.430Z,8.34
2022-10-17T06:53:34.680Z,8.44
2022-10-17T06:56:02.893Z,8.49
2022-10-17T06:58:36.317Z,8.56
2022-10-17T07:03:37.031Z,8.67
2022-10-17T07:06:05.306Z,8.74
2022-10-17T07:08:33.048Z,8.81
2022-10-17T07:11:09.321Z,8.90
2022-10-17T07:13:39.174Z,8.98
2022-10-17T07:16:08.098Z,9.08
2022-10-17T07:18:35.380Z,9.19
2022-10-17T07:21:03.254Z,9.29
2022-10-17T07:23:31.156Z,9.43
2022-10-17T07:26:04.697Z,9.57
2022-10-17T07:28:32.202Z,9.68
2022-10-17T07:31:15.807Z,9.81
2022-10-17T07:33:44.146Z,9.92
2022-10-17T07:36:15.280Z,10.02
2022-10-17T07:38:48.200Z,10.15
2022-10-17T07:41:19.258Z,10.22
2022-10-17T07:43:49.197Z,10.30
2022-10-17T07:46:16.399Z,10.40
2022-10-17T07:48:43.583Z,10.48
2022-10-17T07:51:10.981Z,10.60
2022-10-17T07:53:42.695Z,10.69
2022-10-17T07:56:12.549Z,10.79
2022-10-17T07:58:40.258Z,10.85
2022-10-17T08:01:13.803Z,10.91
2022-10-17T08:03:44.407Z,11.01
2022-10-17T08:06:13.093Z,11.09
2022-10-17T08:08:41.478Z,11.21
2022-10-17T08:11:12.729Z,11.31
2022-10-17T08:13:41.732Z,11.35
2022-10-17T08:16:12.565Z,11.43
2022-10-17T08:18:41.918Z,11.51
2022-10-17T08:21:10.154Z,11.59
2022-10-17T08:23:39.667Z,11.70
2022-10-17T08:26:09.259Z,11.78
2022-10-17T08:28:38.823Z,11.86
2022-10-17T08:31:13.171Z,11.94
2022-10-17T08:33:42.861Z,12.04
2022-10-17T08:36:13.500Z,12.11
2022-10-17T08:38:43.483Z,12.17
2022-10-17T08:41:42.691Z,12.27
2022-10-17T08:44:41.058Z,12.37
2022-10-17T08:47:26.195Z,12.45
2022-10-17T08:50:06.897Z,12.53
2022-10-17T08:53:30.571Z,12.64
2022-10-17T08:56:19.539Z,12.71
2022-10-17T08:58:47.607Z,12.81
2022-10-17T09:01:34.872Z,12.88
2022-10-17T09:04:38.846Z,12.99
2022-10-17T09:07:40.128Z,13.08
2022-10-17T09:10:43.340Z,13.15
2022-10-17T09:13:34.788Z,13.25
2022-10-17T09:16:38.592Z,13.36
2022-10-17T09:19:26.088Z,13.46
2022-10-17T09:22:09.046Z,13.56
2022-10-17T09:24:48.471Z,13.67
2022-10-17T09:27:24.754Z,13.76
2022-10-17T09:30:26.879Z,13.86
2022-10-17T09:33:34.373Z,13.95
2022-10-17T09:36:14.713Z,14.04
2022-10-17T09:38:48.024Z,14.15
2022-10-17T09:41:44.991Z,14.24
2022-10-17T09:44:32.383Z,14.35
2022-10-17T09:47:19.005Z,14.46
2022-10-17T09:49:49.153Z,14.53
2022-10-17T09:52:40.943Z,14.65
2022-10-17T09:55:47.335Z,14.73
2022-10-17T09:58:15.130Z,14.79
2022-10-17T10:00:46.647Z,14.88
2022-10-17T10:03:23.307Z,14.97
2022-10-17T10:06:19.395Z,15.08
2022-10-17T10:08:58.564Z,15.14
2022-10-17T10:11:59.288Z,15.29
2022-10-17T10:14:36.364Z,15.35
2022-10-17T10:17:24.744Z,15.47
2022-10-17T10:19:53.158Z,15.55
2022-10-17T10:22:22.808Z,15.68
2022-10-17T10:25:17.911Z,15.83
2022-10-17T10:27:47.869Z,15.91
2022-10-17T10:30:34.809Z,16.01
2022-10-17T10:33:04.922Z,16.12
2022-10-17T10:35:36.985Z,16.25
2022-10-17T10:38:16.319Z,16.33
2022-10-17T10:40:54.487Z,16.42
2022-10-17T10:43:52.247Z,16.53
2022-10-17T10:46:28.205Z,16.61
2022-10-17T10:49:02.001Z,16.73
2022-10-17T10:51:48.924Z,16.86
2022-10-17T10:54:42.411Z,16.98
2022-10-17T10:57:22.376Z,17.15
2022-10-17T11:00:05.944Z,17.55
2022-10-17T11:03:01.744Z,18.42
2022-10-17T11:05:44.958Z,19.91
2022-10-17T11:08:24.136Z,21.54
2022-10-17T11:11:14.790Z,23.03
2022-10-17T11:14:02.819Z,24.40
2022-10-17T11:16:35.432Z,25.49
2022-10-17T11:19:26.716Z,26.34
2022-10-17T11:22:31.517Z,27.16
2022-10-17T11:25:36.155Z,27.91
2022-10-17T11:28:13.168Z,28.36
2022-10-17T11:31:10.063Z,28.99
2022-10-17T11:33:48.972Z,29.31
2022-10-17T11:36:22.044Z,29.61
2022-10-17T11:39:06.651Z,29.76
2022-10-17T11:41:46.496Z,29.94
2022-10-17T11:44:45.916Z,30.07
2022-10-17T11:47:37.086Z,30.16
2022-10-17T11:53:31.647Z,30.08
2022-10-17T11:56:02.067Z,30.10
2022-10-17T11:58:37.936Z,30.11
2022-10-17T12:01:26.882Z,30.02
2022-10-17T12:04:16.511Z,29.79
2022-10-17T12:07:13.091Z,29.45
2022-10-17T12:10:05.274Z,29.10
2022-10-17T12:12:35.846Z,28.84
2022-10-17T12:15:12.065Z,28.61
2022-10-17T12:17:54.604Z,28.36
2022-10-17T12:20:21.750Z,28.15
2022-10-17T12:22:59.509Z,27.93
2022-10-17T12:25:31.621Z,27.80
2022-10-17T12:28:13.075Z,27.61
2022-10-17T12:31:10.344Z,27.39
2022-10-17T12:33:46.111Z,27.18
2022-10-17T12:36:19.266Z,27.16
2022-10-17T12:39:11.683Z,27.10
2022-10-17T12:41:38.891Z,27.02
2022-10-17T12:44:15.539Z,27.00
2022-10-17T12:47:08.083Z,26.90
2022-10-17T12:49:54.406Z,26.64
2022-10-17T12:52:32.382Z,26.49
2022-10-17T12:55:12.079Z,26.33
2022-10-17T12:58:01.424Z,26.16
2022-10-17T13:01:23.547Z,26.01
2022-10-17T13:03:49.024Z,25.87
2022-10-17T13:06:40.517Z,25.71
2022-10-17T13:09:32.624Z,25.61
2022-10-17T13:12:05.597Z,25.58
2022-10-17T13:14:34.277Z,25.54
2022-10-17T13:17:19.778Z,25.53
2022-10-17T13:19:47.100Z,25.46
2022-10-17T13:22:23.761Z,25.39
2022-10-17T13:25:05.170Z,25.30
2022-10-17T13:27:36.299Z,25.24
2022-10-17T13:30:34.970Z,25.17
2022-10-17T13:33:03.637Z,25.14
2022-10-17T13:35:58.823Z,25.08
2022-10-17T13:38:30.705Z,25.11
2022-10-17T13:41:10.866Z,25.03
2022-10-17T13:43:46.605Z,24.89
2022-10-17T13:46:37.887Z,24.90
2022-10-17T13:49:41.158Z,24.96
2022-10-17T13:52:21.652Z,25.06
2022-10-17T13:54:51.625Z,25.14
2022-10-17T13:57:28.744Z,25.09
2022-10-17T14:00:09.934Z,25.05
2022-10-17T14:02:41.449Z,25.03
2022-10-17T14:05:17.647Z,24.98
2022-10-17T14:08:11.416Z,24.98
2022-10-17T14:10:42.456Z,25.01
2022-10-17T14:13:30.843Z,24.97
2022-10-17T14:16:02.997Z,24.83
2022-10-17T14:18:37.397Z,24.63
2022-10-17T14:24:14.165Z,24.16
2022-10-17T14:26:54.709Z,23.93
2022-10-17T14:29:51.227Z,23.55
2022-10-17T14:32:20.259Z,23.18
2022-10-17T14:34:52.296Z,22.75
2022-10-17T14:37:48.340Z,22.27
2022-10-17T14:40:27.641Z,21.87
2022-10-17T14:43:05.348Z,21.52
2022-10-17T14:45:36.965Z,21.20
2022-10-17T14:48:15.337Z,20.99
2022-10-17T14:51:03.217Z,20.74
2022-10-17T14:53:30.302Z,20.54
2022-10-17T14:56:01.611Z,20.38
2022-10-17T14:58:34.160Z,20.27
2022-10-17T15:01:02.332Z,20.16
2022-10-17T15:03:29.983Z,20.03
2022-10-17T15:05:57.286Z,19.88
2022-10-17T15:08:24.947Z,19.75
2022-10-17T15:10:52.516Z,19.61
2022-10-17T15:13:28.480Z,19.48
2022-10-17T15:15:57.479Z,19.34
2022-10-17T15:18:25.011Z,19.23
2022-10-17T15:21:04.498Z,19.15
2022-10-17T15:23:34.409Z,19.09
2022-10-17T15:26:16.084Z,18.97
2022-10-17T15:28:47.139Z,18.86
2022-10-17T15:31:21.160Z,18.79
2022-10-17T15:33:49.543Z,18.73
2022-10-17T15:36:20.046Z,18.68
2022-10-17T15:38:48.247Z,18.64
2022-10-17T15:41:15.845Z,18.62
2022-10-17T15:43:43.097Z,18.60
2022-10-17T15:46:19.002Z,18.59
2022-10-17T15:48:46.706Z,18.57
2022-10-17T15:51:14.851Z,18.54
2022-10-17T15:53:42.863Z,18.49
2022-10-17T15:56:20.910Z,18.43
2022-10-17T15:58:49.701Z,18.39
2022-10-17T16:01:23.659Z,18.32
2022-10-17T16:03:51.534Z,18.24
2022-10-17T16:06:20.701Z,18.19
2022-10-17T16:08:49.765Z,18.11
2022-10-17T16:11:32.271Z,18.03
2022-10-17T16:14:03.128Z,17.93
2022-10-17T16:16:32.737Z,17.82
2022-10-17T16:19:02.372Z,17.69
2022-10-17T16:21:35.348Z,17.54
2022-10-17T16:24:03.781Z,17.42
2022-10-17T16:26:31.594Z,17.30
2022-10-17T16:28:58.813Z,17.18
2022-10-17T16:31:34.282Z,17.07
2022-10-17T16:34:04.704Z,16.97
2022-10-17T16:36:32.047Z,16.88
2022-10-17T16:38:59.324Z,16.75
2022-10-17T16:41:34.577Z,16.65
2022-10-17T16:44:06.389Z,16.55
2022-10-17T16:46:37.386Z,16.49
2022-10-17T16:49:07.969Z,16.39
2022-10-17T16:51:35.641Z,16.25
2022-10-17T16:54:04.546Z,16.20
2022-10-17T16:56:32.052Z,16.16
2022-10-17T16:59:01.041Z,16.05
2022-10-17T17:01:29.184Z,15.99
2022-10-17T17:03:57.211Z,15.92
2022-10-17T17:06:29.477Z,15.83
2022-10-17T17:08:59.091Z,15.74
2022-10-17T17:11:28.657Z,15.62
2022-10-17T17:14:00.147Z,15.56
2022-10-17T17:16:29.032Z,15.47
2022-10-17T17:19:09.988Z,15.43
2022-10-17T17:21:37.689Z,15.36
2022-10-17T17:24:06.362Z,15.32
2022-10-17T17:26:36.030Z,15.25
2022-10-17T17:29:04.634Z,15.18
2022-10-17T17:31:35.483Z,15.10
2022-10-17T17:34:06.218Z,15.03
2022-10-17T17:36:37.542Z,14.98
2022-10-17T17:39:12.910Z,14.90
2022-10-17T17:41:42.135Z,14.83
2022-10-17T17:44:15.745Z,14.78
2022-10-17T17:46:45.529Z,14.70
2022-10-17T17:49:15.544Z,14.68
2022-10-17T17:51:43.332Z,14.61
2022-10-17T17:54:10.627Z,14.56
2022-10-17T17:56:38.017Z,14.52
2022-10-17T17:59:05.313Z,14.44
2022-10-17T18:01:35.898Z,14.40
2022-10-17T18:04:06.245Z,14.34
2022-10-17T18:06:33.478Z,14.27
2022-10-17T18:09:00.988Z,14.19
2022-10-17T18:11:29.326Z,14.14
2022-10-17T18:14:02.633Z,14.08
2022-10-17T18:16:32.269Z,14.02
2022-10-17T18:19:05.904Z,13.95
2022-10-17T18:21:35.629Z,13.94
2022-10-17T18:24:03.769Z,13.93
2022-10-17T18:26:31.006Z,13.94
2022-10-17T18:28:58.402Z,13.90
2022-10-17T18:31:26.762Z,13.94
2022-10-17T18:33:56.411Z,13.94
2022-10-17T18:36:24.520Z,13.95
2022-10-17T18:38:52.248Z,13.91
2022-10-17T18:41:22.816Z,13.88
2022-10-17T18:43:52.401Z,13.82
2022-10-17T18:46:22.739Z,13.76
2022-10-17T18:48:51.013Z,13.71
2022-10-17T18:51:25.878Z,13.67
2022-10-17T18:53:56.463Z,13.66
2022-10-17T18:56:24.797Z,13.65
2022-10-17T18:58:52.480Z,13.59
2022-10-17T19:01:23.555Z,13.56
2022-10-17T19:03:53.931Z,13.49
2022-10-17T19:06:24.880Z,13.40
2022-10-17T19:08:52.376Z,13.38
2022-10-17T19:11:24.191Z,13.27
2022-10-17T19:13:53.287Z,13.24
2022-10-17T19:16:25.425Z,13.22
2022-10-17T19:19:10.878Z,13.14
2022-10-17T19:21:38.591Z,13.12
2022-10-17T19:24:11.998Z,13.06
2022-10-17T19:26:39.999Z,13.03
2022-10-17T19:29:07.780Z,12.99
2022-10-17T19:31:36.002Z,12.93
2022-10-17T19:34:03.929Z,12.92
2022-10-17T19:36:34.397Z,12.87
2022-10-17T19:39:06.516Z,12.81
2022-10-17T19:41:34.491Z,12.73
2022-10-17T19:44:01.914Z,12.70
2022-10-17T19:46:31.574Z,12.67
2022-10-17T19:48:58.893Z,12.64
2022-10-17T19:51:27.639Z,12.62
2022-10-17T19:53:57.269Z,12.57
2022-10-17T19:56:25.250Z,12.52
2022-10-17T19:58:53.475Z,12.50
2022-10-17T20:01:37.815Z,12.49
2022-10-17T20:04:06.542Z,12.52
2022-10-17T20:06:34.466Z,12.57
2022-10-17T20:09:01.913Z,12.60
2022-10-17T20:11:29.764Z,12.57
2022-10-17T20:13:59.275Z,12.55
2022-10-17T20:16:33.337Z,12.55
2022-10-17T20:19:11.366Z,12.57
2022-10-17T20:21:39.649Z,12.52
2022-10-17T20:24:12.078Z,12.53
2022-10-17T20:26:39.978Z,12.50
2022-10-17T20:29:12.956Z,12.48
2022-10-17T20:31:43.594Z,12.40
2022-10-17T20:34:15.385Z,12.34
2022-10-17T20:36:43.190Z,12.25
2022-10-17T20:39:13.280Z,12.17
2022-10-17T20:41:40.958Z,12.02
2022-10-17T20:44:12.896Z,11.99
2022-10-17T20:46:48.475Z,11.91
2022-10-17T20:49:25.448Z,11.85
2022-10-17T20:51:52.612Z,11.78
2022-10-17T20:54:19.839Z,11.70
2022-10-17T20:56:47.069Z,11.68
2022-10-17T20:59:17.770Z,11.65
2022-10-17T21:01:45.989Z,11.64
2022-10-17T21:07:01.826Z,11.60
2022-10-17T21:09:29.402Z,11.61
2022-10-17T21:11:57.083Z,11.60
2022-10-17T21:14:25.335Z,11.61
2022-10-17T21:17:11.804Z,11.59
2022-10-17T21:19:39.340Z,11.60
2022-10-17T21:22:06.527Z,11.59
2022-10-17T21:24:33.820Z,11.55
2022-10-17T21:27:01.061Z,11.52
2022-10-17T21:29:28.312Z,11.50
2022-10-17T21:31:55.520Z,11.46
2022-10-17T21:34:24.290Z,11.38
2022-10-17T21:36:52.588Z,11.36
2022-10-17T21:39:19.953Z,11.35
2022-10-17T21:41:47.818Z,11.29
2022-10-17T21:44:18.739Z,11.24
2022-10-17T21:46:46.887Z,11.19
2022-10-17T21:49:17.948Z,11.13
2022-10-17T21:51:45.865Z,11.10
2022-10-17T21:54:21.485Z,11.09
2022-10-17T21:56:49.448Z,11.04
2022-10-17T21:59:17.362Z,11.00
2022-10-17T22:01:46.226Z,10.95
2022-10-17T22:04:18.939Z,10.90
2022-10-17T22:06:48.305Z,10.84
2022-10-17T22:09:21.241Z,10.80
2022-10-17T22:11:52.605Z,10.77
2022-10-17T22:14:21.902Z,10.74
2022-10-17T22:16:50.341Z,10.72
2022-10-17T22:19:21.668Z,10.68
2022-10-17T22:21:49.542Z,10.63
2022-10-17T22:26:47.139Z,10.59
2022-10-17T22:29:14.757Z,10.57
2022-10-17T22:31:42.713Z,10.56
2022-10-17T22:34:14.558Z,10.54
2022-10-17T22:36:42.572Z,10.53
2022-10-17T22:39:11.248Z,10.55
2022-10-17T22:41:38.478Z,10.60
2022-10-17T22:44:06.398Z,10.62
2022-10-17T22:46:34.168Z,10.63
2022-10-17T22:49:01.366Z,10.63
2022-10-17T22:51:28.575Z,10.61
2022-10-17T22:53:55.972Z,10.56
2022-10-17T22:56:23.686Z,10.50
2022-10-17T22:58:51.331Z,10.47
2022-10-17T23:01:22.849Z,10.48
2022-10-17T23:03:52.023Z,10.51
2022-10-17T23:06:20.097Z,10.50
2022-10-17T23:08:48.019Z,10.46
2022-10-17T23:11:16.331Z,10.40
2022-10-17T23:13:43.497Z,10.36
2022-10-17T23:16:10.680Z,10.36
2022-10-17T23:18:39.335Z,10.33
2022-10-17T23:21:07.492Z,10.31
2022-10-17T23:23:34.990Z,10.32
2022-10-17T23:26:13.563Z,10.26
2022-10-17T23:28:42.250Z,10.20
2022-10-17T23:31:19.429Z,10.15
2022-10-17T23:33:49.721Z,10.10
2022-10-17T23:36:20.305Z,10.08
2022-10-17T23:38:49.031Z,10.04
2022-10-17T23:41:17.098Z,9.97
2022-10-17T23:43:44.745Z,9.96
2022-10-17T23:46:12.112Z,9.92
2022-10-17T23:48:40.393Z,9.89
2022-10-17T23:51:09.426Z,9.88
2022-10-17T23:53:38.297Z,9.86
2022-10-17T23:56:06.731Z,9.85
2022-10-17T23:58:34.786Z,9.81
